createdAt,value
2022-07-29T00:00:01.596Z,3.45
2022-07-29T00:03:07.734Z,3.45
2022-07-29T00:06:13.867Z,3.00
2022-07-29T00:09:19.785Z,3.10
2022-07-29T00:12:27.051Z,3.20
2022-07-29T00:15:32.938Z,3.30
2022-07-29T00:18:38.499Z,3.25
2022-07-29T00:21:44.247Z,3.33
2022-07-29T00:24:50.368Z,3.28
2022-07-29T00:27:55.951Z,3.20
2022-07-29T00:31:01.417Z,3.50
2022-07-29T00:34:26.922Z,3.10
2022-07-29T00:37:32.644Z,3.47
2022-07-29T00:40:38.283Z,3.40
2022-07-29T00:43:48.792Z,3.65
2022-07-29T00:46:54.240Z,3.60
2022-07-29T00:50:00.232Z,3.83
2022-07-29T00:53:08.574Z,3.97
2022-07-29T00:56:14.481Z,3.40
2022-07-29T00:59:20.315Z,3.72
2022-07-29T01:02:25.947Z,3.20
2022-07-29T01:05:50.576Z,3.15
2022-07-29T01:08:58.228Z,4.00
2022-07-29T01:12:04.352Z,4.10
2022-07-29T01:15:11.107Z,4.10
2022-07-29T01:18:25.696Z,3.80
2022-07-29T01:21:40.721Z,3.45
2022-07-29T01:25:22.441Z,3.70
2022-07-29T01:28:46.222Z,3.83
2022-07-29T01:32:20.263Z,3.50
2022-07-29T01:35:41.520Z,3.97
2022-07-29T01:39:00.227Z,3.10
2022-07-29T01:42:33.748Z,3.67
2022-07-29T01:45:46.762Z,3.60
2022-07-29T01:49:08.378Z,3.72
2022-07-29T01:52:25.012Z,3.78
2022-07-29T01:55:36.017Z,3.65
2022-07-29T01:58:44.933Z,3.80
2022-07-29T02:01:54.453Z,3.38
2022-07-29T02:05:02.015Z,2.95
2022-07-29T02:08:08.470Z,3.35
2022-07-29T02:11:14.670Z,3.25
2022-07-29T02:14:23.200Z,3.13
2022-07-29T02:17:41.022Z,3.40
2022-07-29T02:20:50.162Z,3.30
2022-07-29T02:23:58.300Z,3.50
2022-07-29T02:27:04.933Z,3.00
2022-07-29T02:30:11.267Z,2.90
2022-07-29T02:33:18.482Z,3.17
2022-07-29T02:36:25.504Z,3.35
2022-07-29T02:39:31.389Z,3.65
2022-07-29T02:42:38.737Z,3.47
2022-07-29T02:45:47.902Z,2.63
2022-07-29T02:49:20.675Z,3.20
2022-07-29T02:52:43.166Z,3.38
2022-07-29T02:56:01.478Z,3.08
2022-07-29T02:59:11.952Z,3.20
2022-07-29T03:02:18.313Z,3.15
2022-07-29T03:05:24.463Z,3.63
2022-07-29T03:08:32.368Z,3.30
2022-07-29T03:11:42.452Z,3.55
2022-07-29T03:14:57.146Z,3.50
2022-07-29T03:18:03.941Z,3.88
2022-07-29T03:21:09.947Z,3.13
2022-07-29T03:24:34.277Z,3.78
2022-07-29T03:27:39.837Z,3.72
2022-07-29T03:30:46.319Z,3.80
2022-07-29T03:33:52.073Z,3.58
2022-07-29T03:36:59.929Z,3.22
2022-07-29T03:40:10.040Z,3.50
2022-07-29T03:43:17.295Z,3.40
2022-07-29T03:46:24.658Z,3.58
2022-07-29T03:49:31.214Z,3.35
2022-07-29T03:52:36.843Z,3.25
2022-07-29T03:55:48.871Z,3.60
2022-07-29T03:58:54.862Z,3.08
2022-07-29T04:02:02.496Z,2.95
2022-07-29T04:05:13.914Z,3.13
2022-07-29T04:08:19.413Z,2.85
2022-07-29T04:11:24.640Z,3.17
2022-07-29T04:14:30.876Z,2.85
2022-07-29T04:17:36.240Z,3.05
2022-07-29T04:20:41.504Z,2.60
2022-07-29T04:23:53.933Z,3.20
2022-07-29T04:26:59.686Z,2.90
2022-07-29T04:30:06.716Z,3.22
2022-07-29T04:33:13.304Z,3.60
2022-07-29T04:36:29.104Z,3.25
2022-07-29T04:39:36.994Z,3.10
2022-07-29T04:42:46.840Z,3.20
2022-07-29T04:45:53.940Z,3.38
2022-07-29T04:48:59.574Z,3.28
2022-07-29T04:52:06.235Z,3.15
2022-07-29T04:55:12.068Z,3.50
2022-07-29T04:58:17.845Z,3.15
2022-07-29T05:01:23.569Z,3.03
2022-07-29T05:04:29.328Z,3.10
2022-07-29T05:07:34.907Z,3.30
2022-07-29T05:10:41.200Z,4.00
2022-07-29T05:13:47.084Z,3.40
2022-07-29T05:16:54.277Z,3.38
2022-07-29T05:19:59.781Z,3.35
2022-07-29T05:23:05.969Z,3.63
2022-07-29T05:26:13.397Z,3.53
2022-07-29T05:29:44.321Z,3.60
2022-07-29T05:32:44.798Z,3.42
2022-07-29T05:35:50.395Z,3.95
2022-07-29T05:38:55.993Z,3.65
2022-07-29T05:42:02.132Z,3.42
2022-07-29T05:45:08.883Z,3.95
2022-07-29T05:48:14.536Z,3.78
2022-07-29T05:51:20.520Z,3.53
2022-07-29T05:54:27.011Z,3.72
2022-07-29T05:57:33.062Z,4.07
2022-07-29T06:00:39.168Z,3.50
2022-07-29T06:03:45.450Z,3.65
2022-07-29T06:06:51.104Z,3.80
2022-07-29T06:09:56.822Z,3.42
2022-07-29T06:13:02.440Z,3.63
2022-07-29T06:16:07.857Z,3.53
2022-07-29T06:19:13.698Z,3.70
2022-07-29T06:22:19.835Z,3.92
2022-07-29T06:25:33.596Z,3.90
2022-07-29T06:28:39.956Z,3.78
2022-07-29T06:31:45.898Z,3.80
2022-07-29T06:34:51.919Z,3.53
2022-07-29T06:37:59.482Z,3.80
2022-07-29T06:41:11.192Z,3.80
2022-07-29T06:44:17.663Z,3.97
2022-07-29T06:47:23.886Z,4.00
2022-07-29T06:50:29.636Z,3.80
2022-07-29T06:53:35.925Z,4.20
2022-07-29T06:56:42.913Z,3.92
2022-07-29T06:59:48.899Z,4.22
2022-07-29T07:02:54.976Z,4.47
2022-07-29T07:06:01.395Z,4.15
2022-07-29T07:09:07.990Z,4.25
2022-07-29T07:12:13.903Z,4.30
2022-07-29T07:15:23.087Z,4.07
2022-07-29T07:18:46.506Z,4.00
2022-07-29T07:21:54.160Z,4.03
2022-07-29T07:25:02.276Z,4.22
2022-07-29T07:28:12.456Z,4.25
2022-07-29T07:31:18.567Z,3.70
2022-07-29T07:34:29.474Z,3.88
2022-07-29T07:37:37.051Z,4.25
2022-07-29T07:40:44.661Z,3.83
2022-07-29T07:43:50.909Z,4.03
2022-07-29T07:47:08.558Z,3.97
2022-07-29T07:50:22.054Z,4.10
2022-07-29T07:53:28.361Z,3.85
2022-07-29T07:56:35.406Z,3.88
2022-07-29T07:59:41.620Z,3.72
2022-07-29T08:02:47.730Z,4.03
2022-07-29T08:05:55.577Z,4.03
2022-07-29T08:09:26.700Z,3.88
2022-07-29T08:12:29.095Z,3.75
2022-07-29T08:15:35.391Z,3.90
2022-07-29T08:18:43.272Z,4.10
2022-07-29T08:21:49.651Z,4.22
2022-07-29T08:24:57.294Z,4.07
2022-07-29T08:28:03.280Z,4.30
2022-07-29T08:31:09.693Z,3.80
2022-07-29T08:34:16.444Z,4.43
2022-07-29T08:37:22.431Z,3.97
2022-07-29T08:40:30.531Z,4.55
2022-07-29T08:43:39.450Z,4.05
2022-07-29T08:46:45.481Z,4.05
2022-07-29T08:49:51.577Z,4.78
2022-07-29T08:52:59.845Z,3.95
2022-07-29T08:56:06.637Z,4.35
2022-07-29T08:59:12.792Z,4.10
2022-07-29T09:02:23.997Z,4.15
2022-07-29T09:05:30.190Z,4.15
2022-07-29T09:08:36.333Z,4.20
2022-07-29T09:11:43.226Z,4.35
2022-07-29T09:14:49.517Z,4.03
2022-07-29T09:17:56.535Z,3.90
2022-07-29T09:21:24.138Z,4.28
2022-07-29T09:24:36.364Z,4.35
2022-07-29T09:27:42.491Z,4.30
2022-07-29T09:30:57.574Z,4.10
2022-07-29T09:34:04.696Z,5.00
2022-07-29T09:37:10.923Z,4.60
2022-07-29T09:40:19.590Z,4.05
2022-07-29T09:43:25.931Z,4.13
2022-07-29T09:46:31.805Z,4.10
2022-07-29T09:49:59.463Z,3.97
2022-07-29T09:53:05.701Z,4.13
2022-07-29T09:56:11.965Z,4.00
2022-07-29T09:59:18.215Z,4.05
2022-07-29T10:02:24.070Z,3.95
2022-07-29T10:05:35.935Z,4.15
2022-07-29T10:08:43.336Z,4.18
2022-07-29T10:12:09.515Z,4.00
2022-07-29T10:15:15.929Z,3.75
2022-07-29T10:18:21.608Z,3.90
2022-07-29T10:21:35.237Z,4.05
2022-07-29T10:24:42.288Z,3.72
2022-07-29T10:27:49.323Z,4.00
2022-07-29T10:31:09.638Z,3.60
2022-07-29T10:34:35.736Z,3.55
2022-07-29T10:38:17.473Z,3.80
2022-07-29T10:41:43.947Z,3.55
2022-07-29T10:44:51.219Z,4.07
2022-07-29T10:48:09.786Z,4.18
2022-07-29T10:51:18.965Z,4.03
2022-07-29T10:54:43.649Z,4.10
2022-07-29T10:58:14.066Z,3.80
2022-07-29T11:01:39.370Z,4.30
2022-07-29T11:04:45.765Z,4.07
2022-07-29T11:08:19.759Z,4.00
2022-07-29T11:11:30.729Z,3.88
2022-07-29T11:14:57.364Z,3.70
2022-07-29T11:18:05.625Z,3.80
2022-07-29T11:21:53.696Z,4.28
2022-07-29T11:25:19.187Z,3.80
2022-07-29T11:28:57.418Z,3.90
2022-07-29T11:32:22.641Z,3.55
2022-07-29T11:39:36.318Z,3.83
2022-07-29T11:42:45.486Z,3.85
2022-07-29T11:45:51.623Z,3.88
2022-07-29T11:48:57.457Z,3.50
2022-07-29T11:52:05.564Z,3.65
2022-07-29T11:55:19.759Z,5.75
2022-07-29T11:58:26.372Z,4.13
2022-07-29T12:01:33.190Z,4.30
2022-07-29T12:04:56.567Z,4.00
2022-07-29T12:07:01.567Z,3.70
2022-07-29T12:08:07.921Z,3.85
2022-07-29T12:11:22.119Z,3.65
2022-07-29T12:14:36.269Z,3.30
2022-07-29T12:17:43.155Z,3.65
2022-07-29T12:20:49.728Z,3.40
2022-07-29T12:24:01.775Z,3.60
2022-07-29T12:27:10.582Z,3.67
2022-07-29T12:30:18.537Z,3.30
2022-07-29T12:33:29.958Z,3.70
2022-07-29T12:36:36.210Z,3.25
2022-07-29T12:39:42.903Z,3.50
2022-07-29T12:43:18.780Z,3.45
2022-07-29T12:46:25.153Z,3.35
2022-07-29T12:49:31.175Z,3.40
2022-07-29T12:52:43.660Z,3.38
2022-07-29T12:55:53.031Z,3.40
2022-07-29T12:58:59.135Z,3.78
2022-07-29T13:02:05.338Z,3.30
2022-07-29T13:05:13.865Z,3.40
2022-07-29T13:08:22.253Z,3.63
2022-07-29T13:11:53.389Z,3.38
2022-07-29T13:14:59.708Z,3.42
2022-07-29T13:18:06.397Z,3.10
2022-07-29T13:21:18.793Z,3.15
2022-07-29T13:24:24.809Z,3.35
2022-07-29T13:27:33.517Z,3.38
2022-07-29T13:30:45.001Z,3.10
2022-07-29T13:33:54.241Z,3.17
2022-07-29T13:37:00.794Z,3.25
2022-07-29T13:40:09.515Z,2.90
2022-07-29T13:43:15.565Z,3.25
2022-07-29T13:46:21.805Z,3.10
2022-07-29T13:49:28.949Z,2.90
2022-07-29T13:52:35.812Z,3.30
2022-07-29T13:55:41.733Z,2.58
2022-07-29T13:58:47.610Z,3.28
2022-07-29T14:01:53.361Z,3.38
2022-07-29T14:05:04.976Z,3.13
2022-07-29T14:08:13.851Z,3.28
2022-07-29T14:11:19.641Z,3.00
2022-07-29T14:14:25.296Z,3.50
2022-07-29T14:17:31.115Z,3.45
2022-07-29T14:20:37.548Z,3.10
2022-07-29T14:23:43.421Z,3.53
2022-07-29T14:26:49.689Z,3.42
2022-07-29T14:29:55.774Z,3.53
2022-07-29T14:33:01.290Z,3.63
2022-07-29T14:36:07.395Z,3.28
2022-07-29T14:39:13.177Z,3.42
2022-07-29T14:42:19.087Z,3.40
2022-07-29T14:45:25.050Z,3.15
2022-07-29T14:48:30.659Z,3.58
2022-07-29T14:51:36.579Z,3.40
2022-07-29T14:54:42.593Z,3.70
2022-07-29T14:57:49.386Z,3.40
2022-07-29T15:00:56.085Z,3.80
2022-07-29T15:04:01.556Z,3.47
2022-07-29T15:07:07.050Z,4.45
2022-07-29T15:10:12.797Z,3.58
2022-07-29T15:13:21.411Z,3.40
2022-07-29T15:16:26.955Z,3.25
2022-07-29T15:19:32.972Z,3.53
2022-07-29T15:22:39.533Z,3.45
2022-07-29T15:25:52.852Z,3.40
2022-07-29T15:28:58.989Z,3.22
2022-07-29T15:32:09.593Z,3.60
2022-07-29T15:35:16.269Z,3.47
2022-07-29T15:38:28.954Z,3.80
2022-07-29T15:41:35.362Z,3.67
2022-07-29T15:44:41.483Z,3.80
2022-07-29T15:47:46.978Z,2.75
2022-07-29T15:50:52.970Z,2.03
2022-07-29T15:53:58.924Z,2.40
2022-07-29T15:57:06.514Z,3.20
2022-07-29T16:00:27.952Z,2.70
2022-07-29T16:03:34.793Z,3.05
2022-07-29T16:06:41.267Z,2.78
2022-07-29T16:09:53.220Z,3.35
2022-07-29T16:13:02.784Z,2.60
2022-07-29T16:16:11.352Z,2.50
2022-07-29T16:19:18.073Z,2.75
2022-07-29T16:22:27.991Z,2.70
2022-07-29T16:25:58.626Z,4.63
2022-07-29T16:29:00.425Z,3.05
2022-07-29T16:32:07.028Z,2.50
2022-07-29T16:35:14.884Z,2.60
2022-07-29T16:38:24.125Z,2.05
2022-07-29T16:41:30.018Z,1.95
2022-07-29T16:44:39.780Z,2.08
2022-07-29T16:48:01.004Z,1.92
2022-07-29T16:51:16.396Z,2.20
2022-07-29T16:54:30.029Z,2.90
2022-07-29T16:57:40.171Z,2.58
2022-07-29T17:00:49.527Z,3.00
2022-07-29T17:04:44.376Z,3.05
2022-07-29T17:07:54.401Z,2.70
2022-07-29T17:11:20.420Z,2.53
2022-07-29T17:14:37.589Z,2.30
2022-07-29T17:17:57.176Z,1.90
2022-07-29T17:21:18.941Z,2.38
2022-07-29T17:24:36.853Z,2.30
2022-07-29T17:27:57.519Z,2.72
2022-07-29T17:31:16.812Z,2.45
2022-07-29T17:34:29.914Z,2.75
2022-07-29T17:37:37.236Z,2.35
2022-07-29T17:40:43.726Z,2.90
2022-07-29T17:43:50.336Z,3.03
2022-07-29T17:46:57.246Z,3.40
2022-07-29T17:50:08.254Z,3.05
2022-07-29T17:53:16.862Z,3.25
2022-07-29T17:56:23.268Z,3.20
2022-07-29T17:59:28.939Z,3.20
2022-07-29T18:02:35.214Z,3.20
2022-07-29T18:05:42.228Z,2.47
2022-07-29T18:08:48.518Z,2.80
2022-07-29T18:11:57.484Z,2.47
2022-07-29T18:15:04.596Z,2.60
2022-07-29T18:18:10.809Z,2.47
2022-07-29T18:21:16.454Z,2.30
2022-07-29T18:24:43.496Z,2.28
2022-07-29T18:27:50.449Z,2.60
2022-07-29T18:30:56.732Z,2.17
2022-07-29T18:34:05.655Z,2.10
2022-07-29T18:37:13.068Z,1.73
2022-07-29T18:40:21.207Z,2.35
2022-07-29T18:43:27.211Z,2.30
2022-07-29T18:46:33.096Z,2.20
2022-07-29T18:49:39.819Z,2.13
2022-07-29T18:52:46.718Z,2.00
2022-07-29T18:55:57.322Z,2.38
2022-07-29T18:59:06.178Z,2.03
2022-07-29T19:02:12.167Z,2.05
2022-07-29T19:05:18.667Z,2.30
2022-07-29T19:08:25.888Z,2.20
2022-07-29T19:11:32.292Z,2.38
2022-07-29T19:14:38.591Z,2.70
2022-07-29T19:17:46.528Z,2.42
2022-07-29T19:20:54.033Z,2.58
2022-07-29T19:24:06.425Z,2.95
2022-07-29T19:27:13.456Z,2.85
2022-07-29T19:30:20.473Z,2.58
2022-07-29T19:33:26.116Z,2.72
2022-07-29T19:36:38.124Z,2.60
2022-07-29T19:39:46.344Z,2.38
2022-07-29T19:42:53.539Z,2.42
2022-07-29T19:45:59.257Z,2.08
2022-07-29T19:49:07.004Z,2.08
2022-07-29T19:52:15.419Z,1.90
2022-07-29T19:55:22.431Z,2.20
2022-07-29T19:58:28.317Z,2.08
2022-07-29T20:01:34.440Z,2.40
2022-07-29T20:04:40.649Z,2.20
2022-07-29T20:07:48.064Z,1.92
2022-07-29T20:10:55.345Z,2.25
2022-07-29T20:14:02.609Z,1.77
2022-07-29T20:17:09.144Z,2.00
2022-07-29T20:20:15.462Z,2.00
2022-07-29T20:23:23.486Z,2.15
2022-07-29T20:26:29.479Z,2.15
2022-07-29T20:29:37.099Z,2.17
2022-07-29T20:32:43.890Z,1.90
2022-07-29T20:35:49.553Z,2.15
2022-07-29T20:38:56.500Z,1.88
2022-07-29T20:42:02.935Z,2.10
2022-07-29T20:45:10.047Z,2.33
2022-07-29T20:48:25.528Z,2.15
2022-07-29T20:51:32.385Z,2.80
2022-07-29T20:54:49.510Z,2.00
2022-07-29T20:57:55.396Z,2.40
2022-07-29T21:01:01.943Z,2.50
2022-07-29T21:04:07.548Z,2.50
2022-07-29T21:07:13.667Z,2.15
2022-07-29T21:10:19.377Z,2.60
2022-07-29T21:13:25.784Z,2.25
2022-07-29T21:16:33.525Z,2.33
2022-07-29T21:19:39.290Z,2.63
2022-07-29T21:22:45.717Z,2.53
2022-07-29T21:25:52.531Z,2.63
2022-07-29T21:28:58.276Z,2.70
2022-07-29T21:32:05.030Z,2.78
2022-07-29T21:35:27.267Z,2.47
2022-07-29T21:38:39.059Z,2.50
2022-07-29T21:41:44.829Z,2.53
2022-07-29T21:44:50.515Z,2.70
2022-07-29T21:47:56.265Z,2.35
2022-07-29T21:51:02.360Z,2.40
2022-07-29T21:54:07.838Z,2.60
2022-07-29T21:57:14.332Z,2.42
2022-07-29T22:00:22.395Z,2.58
2022-07-29T22:03:28.077Z,2.65
2022-07-29T22:06:34.723Z,2.50
2022-07-29T22:09:40.887Z,2.75
2022-07-29T22:12:46.895Z,2.90
2022-07-29T22:15:53.040Z,2.83
2022-07-29T22:18:58.370Z,2.63
2022-07-29T22:22:04.606Z,2.70
2022-07-29T22:25:11.246Z,3.03
2022-07-29T22:28:17.044Z,3.13
2022-07-29T22:31:22.921Z,3.00
2022-07-29T22:34:31.769Z,2.80
2022-07-29T22:37:43.994Z,2.78
2022-07-29T22:40:51.687Z,2.92
2022-07-29T22:43:57.553Z,2.75
2022-07-29T22:47:05.013Z,2.92
2022-07-29T22:50:12.830Z,3.10
2022-07-29T22:53:18.663Z,2.90
2022-07-29T22:56:24.358Z,2.65
2022-07-29T22:59:30.123Z,3.03
2022-07-29T23:02:37.152Z,3.38
2022-07-29T23:05:42.748Z,3.00
2022-07-29T23:08:48.333Z,2.60
2022-07-29T23:11:53.878Z,2.90
2022-07-29T23:14:59.974Z,2.50
2022-07-29T23:18:05.451Z,3.00
2022-07-29T23:21:11.271Z,3.10
2022-07-29T23:24:16.640Z,3.03
2022-07-29T23:27:22.313Z,2.92
2022-07-29T23:30:28.009Z,2.80
2022-07-29T23:33:33.749Z,3.00
2022-07-29T23:36:39.734Z,2.78
2022-07-29T23:39:45.490Z,3.17
2022-07-29T23:42:51.403Z,3.03
2022-07-29T23:45:58.502Z,2.63
2022-07-29T23:49:04.592Z,2.88
2022-07-29T23:52:11.503Z,3.00
2022-07-29T23:55:38.076Z,3.30
2022-07-29T23:58:43.383Z,2.80
